sensor_id;sensor_type;location;lat;lon;timestamp;P1;durP1;ratioP1;P2;durP2;ratioP2
71763;SDS011;59602;52.142;5.408;2023-07-09T00:00:13;9.83;;;6.53;;
71763;SDS011;59602;52.142;5.408;2023-07-09T00:02:55;7.60;;;5.53;;
71763;SDS011;59602;52.142;5.408;2023-07-09T00:05:24;10.40;;;5.40;;
71763;SDS011;59602;52.142;5.408;2023-07-09T00:08:21;9.52;;;6.10;;
71763;SDS011;59602;52.142;5.408;2023-07-09T00:11:20;12.23;;;5.80;;
71763;SDS011;59602;52.142;5.408;2023-07-09T00:14:09;9.83;;;6.87;;
71763;SDS011;59602;52.142;5.408;2023-07-09T00:16:39;9.38;;;6.18;;
71763;SDS011;59602;52.142;5.408;2023-07-09T00:19:12;7.72;;;6.35;;
71763;SDS011;59602;52.142;5.408;2023-07-09T00:22:03;13.18;;;6.03;;
71763;SDS011;59602;52.142;5.408;2023-07-09T00:24:57;9.20;;;6.00;;
71763;SDS011;59602;52.142;5.408;2023-07-09T00:27:50;10.43;;;6.50;;
71763;SDS011;59602;52.142;5.408;2023-07-09T00:30:44;9.65;;;6.53;;
71763;SDS011;59602;52.142;5.408;2023-07-09T00:33:11;10.15;;;6.30;;
71763;SDS011;59602;52.142;5.408;2023-07-09T00:36:04;10.45;;;7.55;;
71763;SDS011;59602;52.142;5.408;2023-07-09T00:38:58;9.18;;;6.55;;
71763;SDS011;59602;52.142;5.408;2023-07-09T00:41:55;10.57;;;6.67;;
71763;SDS011;59602;52.142;5.408;2023-07-09T00:44:25;10.70;;;7.07;;
71763;SDS011;59602;52.142;5.408;2023-07-09T00:49:29;10.23;;;7.03;;
71763;SDS011;59602;52.142;5.408;2023-07-09T00:52:00;10.95;;;7.35;;
71763;SDS011;59602;52.142;5.408;2023-07-09T00:54:32;9.60;;;6.87;;
71763;SDS011;59602;52.142;5.408;2023-07-09T00:57:21;9.07;;;7.03;;
71763;SDS011;59602;52.142;5.408;2023-07-09T01:00:28;13.13;;;7.70;;
71763;SDS011;59602;52.142;5.408;2023-07-09T01:03:39;10.93;;;6.68;;
71763;SDS011;59602;52.142;5.408;2023-07-09T01:06:11;10.02;;;6.53;;
71763;SDS011;59602;52.142;5.408;2023-07-09T01:08:40;12.00;;;6.90;;
71763;SDS011;59602;52.142;5.408;2023-07-09T01:11:42;9.68;;;6.80;;
71763;SDS011;59602;52.142;5.408;2023-07-09T01:14:10;10.88;;;7.18;;
71763;SDS011;59602;52.142;5.408;2023-07-09T01:16:42;9.93;;;7.10;;
71763;SDS011;59602;52.142;5.408;2023-07-09T01:19:36;10.05;;;7.07;;
71763;SDS011;59602;52.142;5.408;2023-07-09T01:22:39;9.37;;;6.60;;
71763;SDS011;59602;52.142;5.408;2023-07-09T01:25:08;10.95;;;7.38;;
71763;SDS011;59602;52.142;5.408;2023-07-09T01:27:40;9.68;;;7.32;;
71763;SDS011;59602;52.142;5.408;2023-07-09T01:30:12;10.25;;;6.50;;
71763;SDS011;59602;52.142;5.408;2023-07-09T01:32:43;14.18;;;8.50;;
71763;SDS011;59602;52.142;5.408;2023-07-09T01:35:14;12.50;;;7.43;;
71763;SDS011;59602;52.142;5.408;2023-07-09T01:37:41;11.50;;;7.38;;
71763;SDS011;59602;52.142;5.408;2023-07-09T01:40:31;10.85;;;7.45;;
71763;SDS011;59602;52.142;5.408;2023-07-09T01:43:02;12.50;;;7.30;;
71763;SDS011;59602;52.142;5.408;2023-07-09T01:45:35;11.50;;;7.50;;
71763;SDS011;59602;52.142;5.408;2023-07-09T01:48:03;12.67;;;7.97;;
71763;SDS011;59602;52.142;5.408;2023-07-09T01:50:30;11.75;;;7.55;;
71763;SDS011;59602;52.142;5.408;2023-07-09T01:52:58;10.50;;;7.63;;
71763;SDS011;59602;52.142;5.408;2023-07-09T01:55:26;11.82;;;8.27;;
71763;SDS011;59602;52.142;5.408;2023-07-09T01:57:55;12.57;;;8.10;;
71763;SDS011;59602;52.142;5.408;2023-07-09T02:00:21;13.40;;;8.30;;
71763;SDS011;59602;52.142;5.408;2023-07-09T02:02:51;12.27;;;7.75;;
71763;SDS011;59602;52.142;5.408;2023-07-09T02:05:19;12.88;;;8.30;;
71763;SDS011;59602;52.142;5.408;2023-07-09T02:07:46;10.63;;;8.05;;
71763;SDS011;59602;52.142;5.408;2023-07-09T02:10:17;14.55;;;7.95;;
71763;SDS011;59602;52.142;5.408;2023-07-09T02:12:44;13.03;;;7.90;;
71763;SDS011;59602;52.142;5.408;2023-07-09T02:15:11;13.68;;;8.25;;
71763;SDS011;59602;52.142;5.408;2023-07-09T02:17:40;11.93;;;8.50;;
71763;SDS011;59602;52.142;5.408;2023-07-09T02:20:08;11.45;;;8.57;;
71763;SDS011;59602;52.142;5.408;2023-07-09T02:22:50;11.60;;;8.50;;
71763;SDS011;59602;52.142;5.408;2023-07-09T02:25:18;13.00;;;9.10;;
71763;SDS011;59602;52.142;5.408;2023-07-09T02:27:44;13.70;;;8.30;;
71763;SDS011;59602;52.142;5.408;2023-07-09T02:30:11;11.93;;;8.02;;
71763;SDS011;59602;52.142;5.408;2023-07-09T02:32:59;12.23;;;8.27;;
71763;SDS011;59602;52.142;5.408;2023-07-09T02:35:28;14.50;;;8.10;;
71763;SDS011;59602;52.142;5.408;2023-07-09T02:37:55;12.73;;;8.27;;
71763;SDS011;59602;52.142;5.408;2023-07-09T02:40:22;12.93;;;7.47;;
71763;SDS011;59602;52.142;5.408;2023-07-09T02:42:49;11.73;;;8.20;;
71763;SDS011;59602;52.142;5.408;2023-07-09T02:45:16;11.93;;;7.78;;
71763;SDS011;59602;52.142;5.408;2023-07-09T02:47:42;12.48;;;8.10;;
71763;SDS011;59602;52.142;5.408;2023-07-09T02:50:10;12.53;;;7.37;;
71763;SDS011;59602;52.142;5.408;2023-07-09T02:52:37;14.10;;;8.00;;
71763;SDS011;59602;52.142;5.408;2023-07-09T02:55:04;9.65;;;7.93;;
71763;SDS011;59602;52.142;5.408;2023-07-09T02:57:31;9.55;;;7.18;;
71763;SDS011;59602;52.142;5.408;2023-07-09T02:59:57;10.60;;;8.05;;
71763;SDS011;59602;52.142;5.408;2023-07-09T03:02:24;10.47;;;7.47;;
71763;SDS011;59602;52.142;5.408;2023-07-09T03:04:51;11.40;;;7.72;;
71763;SDS011;59602;52.142;5.408;2023-07-09T03:07:18;13.15;;;8.35;;
71763;SDS011;59602;52.142;5.408;2023-07-09T03:09:48;10.27;;;7.60;;
71763;SDS011;59602;52.142;5.408;2023-07-09T03:12:14;12.50;;;7.57;;
71763;SDS011;59602;52.142;5.408;2023-07-09T03:14:47;11.67;;;7.03;;
71763;SDS011;59602;52.142;5.408;2023-07-09T03:17:14;9.95;;;7.25;;
71763;SDS011;59602;52.142;5.408;2023-07-09T03:19:41;10.50;;;7.45;;
71763;SDS011;59602;52.142;5.408;2023-07-09T03:22:07;10.35;;;7.40;;
71763;SDS011;59602;52.142;5.408;2023-07-09T03:24:58;12.57;;;7.47;;
71763;SDS011;59602;52.142;5.408;2023-07-09T03:27:25;10.20;;;7.47;;
71763;SDS011;59602;52.142;5.408;2023-07-09T03:29:52;10.88;;;7.55;;
71763;SDS011;59602;52.142;5.408;2023-07-09T03:32:19;10.85;;;7.50;;
71763;SDS011;59602;52.142;5.408;2023-07-09T03:34:46;12.02;;;8.30;;
71763;SDS011;59602;52.142;5.408;2023-07-09T03:37:35;11.88;;;7.70;;
71763;SDS011;59602;52.142;5.408;2023-07-09T03:42:39;10.15;;;7.22;;
71763;SDS011;59602;52.142;5.408;2023-07-09T03:45:06;10.50;;;7.03;;
71763;SDS011;59602;52.142;5.408;2023-07-09T03:47:33;10.70;;;6.90;;
71763;SDS011;59602;52.142;5.408;2023-07-09T03:50:00;13.93;;;7.57;;
71763;SDS011;59602;52.142;5.408;2023-07-09T03:52:26;10.73;;;6.90;;
71763;SDS011;59602;52.142;5.408;2023-07-09T03:54:53;9.88;;;7.00;;
71763;SDS011;59602;52.142;5.408;2023-07-09T03:57:20;10.93;;;7.40;;
71763;SDS011;59602;52.142;5.408;2023-07-09T03:59:47;9.50;;;7.10;;
71763;SDS011;59602;52.142;5.408;2023-07-09T04:02:13;10.85;;;7.00;;
71763;SDS011;59602;52.142;5.408;2023-07-09T04:04:42;9.17;;;7.27;;
71763;SDS011;59602;52.142;5.408;2023-07-09T04:07:09;11.70;;;7.20;;
71763;SDS011;59602;52.142;5.408;2023-07-09T04:09:36;10.70;;;7.03;;
71763;SDS011;59602;52.142;5.408;2023-07-09T04:12:03;10.25;;;7.03;;
71763;SDS011;59602;52.142;5.408;2023-07-09T04:14:30;11.13;;;7.60;;
71763;SDS011;59602;52.142;5.408;2023-07-09T04:17:19;11.13;;;7.60;;
71763;SDS011;59602;52.142;5.408;2023-07-09T04:19:48;11.23;;;7.57;;
71763;SDS011;59602;52.142;5.408;2023-07-09T04:22:16;11.45;;;7.18;;
71763;SDS011;59602;52.142;5.408;2023-07-09T04:24:43;11.75;;;7.18;;
71763;SDS011;59602;52.142;5.408;2023-07-09T04:27:10;11.52;;;7.60;;
71763;SDS011;59602;52.142;5.408;2023-07-09T04:29:40;10.27;;;7.50;;
71763;SDS011;59602;52.142;5.408;2023-07-09T04:32:07;10.57;;;7.25;;
71763;SDS011;59602;52.142;5.408;2023-07-09T04:34:40;10.85;;;7.30;;
71763;SDS011;59602;52.142;5.408;2023-07-09T04:37:09;10.43;;;7.30;;
71763;SDS011;59602;52.142;5.408;2023-07-09T04:39:39;12.25;;;7.40;;
71763;SDS011;59602;52.142;5.408;2023-07-09T04:42:08;11.60;;;6.93;;
71763;SDS011;59602;52.142;5.408;2023-07-09T04:44:57;10.18;;;7.50;;
71763;SDS011;59602;52.142;5.408;2023-07-09T04:47:26;9.95;;;7.32;;
71763;SDS011;59602;52.142;5.408;2023-07-09T04:49:53;13.15;;;7.38;;
71763;SDS011;59602;52.142;5.408;2023-07-09T04:52:20;11.77;;;7.47;;
71763;SDS011;59602;52.142;5.408;2023-07-09T04:54:49;10.27;;;7.00;;
71763;SDS011;59602;52.142;5.408;2023-07-09T04:57:16;13.75;;;7.22;;
71763;SDS011;59602;52.142;5.408;2023-07-09T04:59:44;12.93;;;7.45;;
71763;SDS011;59602;52.142;5.408;2023-07-09T05:02:14;11.05;;;7.40;;
71763;SDS011;59602;52.142;5.408;2023-07-09T05:04:41;15.07;;;8.13;;
71763;SDS011;59602;52.142;5.408;2023-07-09T05:07:08;12.70;;;7.90;;
71763;SDS011;59602;52.142;5.408;2023-07-09T05:09:35;13.50;;;8.20;;
71763;SDS011;59602;52.142;5.408;2023-07-09T05:12:02;9.40;;;7.03;;
71763;SDS011;59602;52.142;5.408;2023-07-09T05:14:30;11.43;;;7.13;;
71763;SDS011;59602;52.142;5.408;2023-07-09T05:16:57;11.20;;;7.85;;
71763;SDS011;59602;52.142;5.408;2023-07-09T05:19:39;10.87;;;7.17;;
71763;SDS011;59602;52.142;5.408;2023-07-09T05:22:06;12.27;;;7.47;;
71763;SDS011;59602;52.142;5.408;2023-07-09T05:24:33;9.85;;;7.07;;
71763;SDS011;59602;52.142;5.408;2023-07-09T05:27:14;9.18;;;7.82;;
71763;SDS011;59602;52.142;5.408;2023-07-09T05:29:40;11.93;;;7.10;;
71763;SDS011;59602;52.142;5.408;2023-07-09T05:32:07;9.73;;;7.33;;
71763;SDS011;59602;52.142;5.408;2023-07-09T05:34:34;10.30;;;6.97;;
71763;SDS011;59602;52.142;5.408;2023-07-09T05:37:01;8.70;;;6.68;;
71763;SDS011;59602;52.142;5.408;2023-07-09T05:39:27;11.02;;;6.90;;
71763;SDS011;59602;52.142;5.408;2023-07-09T05:41:59;10.15;;;6.47;;
71763;SDS011;59602;52.142;5.408;2023-07-09T05:44:26;11.73;;;7.63;;
71763;SDS011;59602;52.142;5.408;2023-07-09T05:46:53;10.73;;;7.32;;
71763;SDS011;59602;52.142;5.408;2023-07-09T05:49:20;11.65;;;7.65;;
71763;SDS011;59602;52.142;5.408;2023-07-09T05:51:46;11.85;;;8.00;;
71763;SDS011;59602;52.142;5.408;2023-07-09T05:54:13;12.90;;;8.23;;
71763;SDS011;59602;52.142;5.408;2023-07-09T05:56:40;14.87;;;7.70;;
71763;SDS011;59602;52.142;5.408;2023-07-09T05:59:07;11.52;;;7.38;;
71763;SDS011;59602;52.142;5.408;2023-07-09T06:01:34;10.70;;;7.25;;
71763;SDS011;59602;52.142;5.408;2023-07-09T06:04:02;11.80;;;8.23;;
71763;SDS011;59602;52.142;5.408;2023-07-09T06:06:57;11.05;;;7.63;;
71763;SDS011;59602;52.142;5.408;2023-07-09T06:09:29;13.60;;;8.27;;
71763;SDS011;59602;52.142;5.408;2023-07-09T06:11:57;12.70;;;7.90;;
71763;SDS011;59602;52.142;5.408;2023-07-09T06:14:24;11.77;;;8.90;;
71763;SDS011;59602;52.142;5.408;2023-07-09T06:16:51;12.07;;;8.68;;
71763;SDS011;59602;52.142;5.408;2023-07-09T09:04:02;10.05;;;7.57;;
71763;SDS011;59602;52.142;5.408;2023-07-09T09:13:45;15.07;;;7.57;;
71763;SDS011;59602;52.142;5.408;2023-07-09T09:18:49;11.70;;;7.13;;
71763;SDS011;59602;52.142;5.408;2023-07-09T09:31:20;10.85;;;7.30;;
71763;SDS011;59602;52.142;5.408;2023-07-09T09:34:01;9.77;;;6.75;;
71763;SDS011;59602;52.142;5.408;2023-07-09T09:36:45;11.88;;;6.40;;
71763;SDS011;59602;52.142;5.408;2023-07-09T09:45:47;10.57;;;6.57;;
71763;SDS011;59602;52.142;5.408;2023-07-09T10:02:42;14.52;;;11.82;;
71763;SDS011;59602;52.142;5.408;2023-07-09T11:02:26;14.25;;;9.85;;
71763;SDS011;59602;52.142;5.408;2023-07-09T11:31:46;12.83;;;11.27;;
71763;SDS011;59602;52.142;5.408;2023-07-09T14:25:17;6.80;;;2.90;;
71763;SDS011;59602;52.142;5.408;2023-07-09T14:28:08;7.35;;;2.90;;
71763;SDS011;59602;52.142;5.408;2023-07-09T14:47:54;4.15;;;2.80;;
71763;SDS011;59602;52.142;5.408;2023-07-09T14:50:22;6.88;;;3.17;;
71763;SDS011;59602;52.142;5.408;2023-07-09T14:52:49;6.80;;;2.80;;
71763;SDS011;59602;52.142;5.408;2023-07-09T14:55:16;7.60;;;3.13;;
71763;SDS011;59602;52.142;5.408;2023-07-09T14:57:45;10.70;;;2.67;;
71763;SDS011;59602;52.142;5.408;2023-07-09T15:00:17;11.07;;;3.03;;
71763;SDS011;59602;52.142;5.408;2023-07-09T15:02:48;8.45;;;3.83;;
71763;SDS011;59602;52.142;5.408;2023-07-09T15:05:18;10.67;;;3.80;;
71763;SDS011;59602;52.142;5.408;2023-07-09T15:07:48;7.47;;;3.50;;
71763;SDS011;59602;52.142;5.408;2023-07-09T15:10:15;11.57;;;3.65;;
71763;SDS011;59602;52.142;5.408;2023-07-09T15:12:50;11.68;;;3.33;;
71763;SDS011;59602;52.142;5.408;2023-07-09T15:15:22;6.18;;;2.67;;
71763;SDS011;59602;52.142;5.408;2023-07-09T15:17:52;5.90;;;2.60;;
71763;SDS011;59602;52.142;5.408;2023-07-09T15:20:21;7.43;;;2.53;;
71763;SDS011;59602;52.142;5.408;2023-07-09T15:22:49;8.38;;;2.30;;
71763;SDS011;59602;52.142;5.408;2023-07-09T15:25:19;4.32;;;2.25;;
71763;SDS011;59602;52.142;5.408;2023-07-09T15:27:47;3.95;;;2.22;;
71763;SDS011;59602;52.142;5.408;2023-07-09T15:30:18;5.13;;;2.20;;
71763;SDS011;59602;52.142;5.408;2023-07-09T15:32:46;4.68;;;2.70;;
71763;SDS011;59602;52.142;5.408;2023-07-09T15:35:17;6.30;;;2.85;;
71763;SDS011;59602;52.142;5.408;2023-07-09T15:37:45;4.65;;;3.00;;
71763;SDS011;59602;52.142;5.408;2023-07-09T15:40:21;6.43;;;3.40;;
71763;SDS011;59602;52.142;5.408;2023-07-09T15:42:51;9.27;;;4.57;;
71763;SDS011;59602;52.142;5.408;2023-07-09T15:45:21;5.78;;;3.78;;
71763;SDS011;59602;52.142;5.408;2023-07-09T15:47:49;9.40;;;3.83;;
71763;SDS011;59602;52.142;5.408;2023-07-09T15:50:18;8.93;;;4.50;;
71763;SDS011;59602;52.142;5.408;2023-07-09T15:52:48;7.38;;;4.57;;
71763;SDS011;59602;52.142;5.408;2023-07-09T15:55:17;9.60;;;4.37;;
71763;SDS011;59602;52.142;5.408;2023-07-09T15:57:46;8.30;;;4.85;;
71763;SDS011;59602;52.142;5.408;2023-07-09T16:00:15;9.50;;;4.93;;
71763;SDS011;59602;52.142;5.408;2023-07-09T16:02:45;10.15;;;3.95;;
71763;SDS011;59602;52.142;5.408;2023-07-09T16:05:18;7.40;;;3.90;;
71763;SDS011;59602;52.142;5.408;2023-07-09T16:07:47;10.60;;;5.93;;
71763;SDS011;59602;52.142;5.408;2023-07-09T16:10:13;9.10;;;5.45;;
71763;SDS011;59602;52.142;5.408;2023-07-09T16:12:40;9.93;;;5.40;;
71763;SDS011;59602;52.142;5.408;2023-07-09T16:15:12;9.05;;;5.80;;
71763;SDS011;59602;52.142;5.408;2023-07-09T16:17:41;10.95;;;6.35;;
71763;SDS011;59602;52.142;5.408;2023-07-09T16:20:10;6.93;;;4.83;;
71763;SDS011;59602;52.142;5.408;2023-07-09T16:22:39;8.77;;;4.68;;
71763;SDS011;59602;52.142;5.408;2023-07-09T16:27:48;8.15;;;4.13;;
71763;SDS011;59602;52.142;5.408;2023-07-09T16:30:19;5.53;;;3.70;;
71763;SDS011;59602;52.142;5.408;2023-07-09T16:32:47;7.03;;;3.73;;
71763;SDS011;59602;52.142;5.408;2023-07-09T16:35:15;6.05;;;3.70;;
71763;SDS011;59602;52.142;5.408;2023-07-09T16:37:44;5.80;;;3.97;;
71763;SDS011;59602;52.142;5.408;2023-07-09T16:40:14;5.18;;;3.28;;
71763;SDS011;59602;52.142;5.408;2023-07-09T16:42:43;6.60;;;3.30;;
71763;SDS011;59602;52.142;5.408;2023-07-09T16:45:10;5.23;;;3.33;;
71763;SDS011;59602;52.142;5.408;2023-07-09T16:47:39;6.60;;;3.50;;
71763;SDS011;59602;52.142;5.408;2023-07-09T16:50:08;6.47;;;3.30;;
71763;SDS011;59602;52.142;5.408;2023-07-09T16:52:39;5.65;;;2.80;;
71763;SDS011;59602;52.142;5.408;2023-07-09T16:55:08;5.28;;;2.75;;
71763;SDS011;59602;52.142;5.408;2023-07-09T16:57:39;6.47;;;3.03;;
71763;SDS011;59602;52.142;5.408;2023-07-09T17:00:18;6.13;;;2.70;;
71763;SDS011;59602;52.142;5.408;2023-07-09T17:02:49;4.53;;;2.50;;
71763;SDS011;59602;52.142;5.408;2023-07-09T17:05:16;3.53;;;2.72;;
71763;SDS011;59602;52.142;5.408;2023-07-09T17:07:43;4.28;;;2.50;;
71763;SDS011;59602;52.142;5.408;2023-07-09T17:10:11;6.23;;;2.90;;
71763;SDS011;59602;52.142;5.408;2023-07-09T17:12:38;3.65;;;2.33;;
71763;SDS011;59602;52.142;5.408;2023-07-09T17:15:09;4.35;;;2.55;;
71763;SDS011;59602;52.142;5.408;2023-07-09T17:17:50;4.90;;;2.33;;
71763;SDS011;59602;52.142;5.408;2023-07-09T17:20:18;4.22;;;2.53;;
71763;SDS011;59602;52.142;5.408;2023-07-09T17:22:45;4.30;;;2.50;;
71763;SDS011;59602;52.142;5.408;2023-07-09T17:25:34;5.50;;;2.60;;
71763;SDS011;59602;52.142;5.408;2023-07-09T17:28:10;3.83;;;2.42;;
71763;SDS011;59602;52.142;5.408;2023-07-09T17:30:40;4.15;;;2.30;;
71763;SDS011;59602;52.142;5.408;2023-07-09T17:33:06;4.93;;;2.58;;
71763;SDS011;59602;52.142;5.408;2023-07-09T17:35:35;4.30;;;2.97;;
71763;SDS011;59602;52.142;5.408;2023-07-09T17:38:03;4.18;;;2.25;;
71763;SDS011;59602;52.142;5.408;2023-07-09T17:40:34;3.83;;;2.28;;
71763;SDS011;59602;52.142;5.408;2023-07-09T17:43:13;4.03;;;2.40;;
71763;SDS011;59602;52.142;5.408;2023-07-09T17:45:43;4.68;;;2.30;;
71763;SDS011;59602;52.142;5.408;2023-07-09T17:48:14;4.30;;;2.23;;
71763;SDS011;59602;52.142;5.408;2023-07-09T17:50:43;3.60;;;2.10;;
71763;SDS011;59602;52.142;5.408;2023-07-09T17:53:15;4.50;;;1.73;;
71763;SDS011;59602;52.142;5.408;2023-07-09T17:55:44;3.40;;;1.70;;
71763;SDS011;59602;52.142;5.408;2023-07-09T17:58:11;3.63;;;1.90;;
71763;SDS011;59602;52.142;5.408;2023-07-09T18:00:39;4.80;;;2.50;;
71763;SDS011;59602;52.142;5.408;2023-07-09T18:03:07;3.58;;;1.95;;
71763;SDS011;59602;52.142;5.408;2023-07-09T18:05:36;4.70;;;1.90;;
71763;SDS011;59602;52.142;5.408;2023-07-09T18:08:04;4.60;;;2.08;;
71763;SDS011;59602;52.142;5.408;2023-07-09T18:10:33;2.72;;;1.80;;
71763;SDS011;59602;52.142;5.408;2023-07-09T18:15:35;6.80;;;3.35;;
71763;SDS011;59602;52.142;5.408;2023-07-09T18:18:03;5.60;;;3.10;;
71763;SDS011;59602;52.142;5.408;2023-07-09T18:20:31;6.72;;;3.00;;
71763;SDS011;59602;52.142;5.408;2023-07-09T18:22:58;4.43;;;2.75;;
71763;SDS011;59602;52.142;5.408;2023-07-09T18:25:26;6.00;;;3.10;;
71763;SDS011;59602;52.142;5.408;2023-07-09T18:27:58;6.15;;;3.25;;
71763;SDS011;59602;52.142;5.408;2023-07-09T18:30:27;6.70;;;3.00;;
71763;SDS011;59602;52.142;5.408;2023-07-09T18:32:56;5.30;;;3.20;;
71763;SDS011;59602;52.142;5.408;2023-07-09T18:35:26;5.00;;;3.17;;
71763;SDS011;59602;52.142;5.408;2023-07-09T18:37:56;7.60;;;3.07;;
71763;SDS011;59602;52.142;5.408;2023-07-09T18:40:25;5.78;;;3.08;;
71763;SDS011;59602;52.142;5.408;2023-07-09T18:42:54;6.32;;;3.15;;
71763;SDS011;59602;52.142;5.408;2023-07-09T18:45:22;5.78;;;3.45;;
71763;SDS011;59602;52.142;5.408;2023-07-09T18:47:51;6.50;;;3.70;;
71763;SDS011;59602;52.142;5.408;2023-07-09T18:50:25;6.73;;;3.60;;
71763;SDS011;59602;52.142;5.408;2023-07-09T18:52:54;6.18;;;4.10;;
71763;SDS011;59602;52.142;5.408;2023-07-09T18:55:23;7.85;;;4.03;;
71763;SDS011;59602;52.142;5.408;2023-07-09T18:57:52;5.47;;;3.67;;
71763;SDS011;59602;52.142;5.408;2023-07-09T19:00:19;7.75;;;3.95;;
71763;SDS011;59602;52.142;5.408;2023-07-09T19:02:50;6.73;;;3.80;;
71763;SDS011;59602;52.142;5.408;2023-07-09T19:05:22;9.82;;;4.47;;
71763;SDS011;59602;52.142;5.408;2023-07-09T19:07:52;7.65;;;4.43;;
71763;SDS011;59602;52.142;5.408;2023-07-09T19:12:50;7.47;;;4.45;;
71763;SDS011;59602;52.142;5.408;2023-07-09T19:15:20;8.97;;;3.93;;
71763;SDS011;59602;52.142;5.408;2023-07-09T19:17:48;9.07;;;4.75;;
71763;SDS011;59602;52.142;5.408;2023-07-09T19:20:20;7.32;;;4.70;;
71763;SDS011;59602;52.142;5.408;2023-07-09T19:22:49;9.57;;;4.97;;
71763;SDS011;59602;52.142;5.408;2023-07-09T19:25:18;9.27;;;5.38;;
71763;SDS011;59602;52.142;5.408;2023-07-09T19:27:47;10.03;;;5.80;;
71763;SDS011;59602;52.142;5.408;2023-07-09T19:30:15;9.45;;;5.07;;
71763;SDS011;59602;52.142;5.408;2023-07-09T19:32:45;8.48;;;5.10;;
71763;SDS011;59602;52.142;5.408;2023-07-09T19:35:17;7.65;;;5.07;;
71763;SDS011;59602;52.142;5.408;2023-07-09T19:37:46;11.13;;;5.35;;
71763;SDS011;59602;52.142;5.408;2023-07-09T19:40:18;8.27;;;5.10;;
71763;SDS011;59602;52.142;5.408;2023-07-09T19:42:47;8.65;;;5.55;;
71763;SDS011;59602;52.142;5.408;2023-07-09T19:45:16;11.25;;;5.47;;
71763;SDS011;59602;52.142;5.408;2023-07-09T19:47:46;9.60;;;5.13;;
71763;SDS011;59602;52.142;5.408;2023-07-09T19:50:21;7.93;;;4.82;;
71763;SDS011;59602;52.142;5.408;2023-07-09T19:52:51;8.13;;;5.47;;
71763;SDS011;59602;52.142;5.408;2023-07-09T19:55:21;11.10;;;5.50;;
71763;SDS011;59602;52.142;5.408;2023-07-09T19:57:50;8.32;;;5.65;;
71763;SDS011;59602;52.142;5.408;2023-07-09T20:00:18;9.50;;;5.78;;
71763;SDS011;59602;52.142;5.408;2023-07-09T20:02:48;9.52;;;5.53;;
71763;SDS011;59602;52.142;5.408;2023-07-09T20:05:19;13.13;;;6.10;;
71763;SDS011;59602;52.142;5.408;2023-07-09T20:07:52;12.20;;;6.10;;
71763;SDS011;59602;52.142;5.408;2023-07-09T20:10:24;11.82;;;5.90;;
71763;SDS011;59602;52.142;5.408;2023-07-09T20:12:52;10.10;;;5.70;;
71763;SDS011;59602;52.142;5.408;2023-07-09T20:15:23;11.13;;;6.35;;
71763;SDS011;59602;52.142;5.408;2023-07-09T20:17:53;9.63;;;6.33;;
71763;SDS011;59602;52.142;5.408;2023-07-09T20:20:22;13.85;;;7.07;;
71763;SDS011;59602;52.142;5.408;2023-07-09T20:22:50;12.15;;;6.25;;
71763;SDS011;59602;52.142;5.408;2023-07-09T20:25:20;8.73;;;5.75;;
71763;SDS011;59602;52.142;5.408;2023-07-09T20:27:49;9.90;;;6.18;;
71763;SDS011;59602;52.142;5.408;2023-07-09T20:30:17;11.90;;;5.97;;
71763;SDS011;59602;52.142;5.408;2023-07-09T20:32:45;11.25;;;5.80;;
71763;SDS011;59602;52.142;5.408;2023-07-09T20:35:15;8.55;;;5.80;;
71763;SDS011;59602;52.142;5.408;2023-07-09T20:37:47;10.82;;;5.82;;
71763;SDS011;59602;52.142;5.408;2023-07-09T20:40:16;10.75;;;6.55;;
71763;SDS011;59602;52.142;5.408;2023-07-09T20:42:44;10.17;;;6.07;;
71763;SDS011;59602;52.142;5.408;2023-07-09T20:45:14;9.35;;;5.80;;
71763;SDS011;59602;52.142;5.408;2023-07-09T20:47:45;9.70;;;5.60;;
71763;SDS011;59602;52.142;5.408;2023-07-09T20:50:17;10.18;;;5.78;;
71763;SDS011;59602;52.142;5.408;2023-07-09T20:52:48;12.32;;;6.15;;
71763;SDS011;59602;52.142;5.408;2023-07-09T20:55:15;10.43;;;6.27;;
71763;SDS011;59602;52.142;5.408;2023-07-09T20:57:44;9.68;;;6.22;;
71763;SDS011;59602;52.142;5.408;2023-07-09T21:00:16;11.00;;;6.50;;
71763;SDS011;59602;52.142;5.408;2023-07-09T21:02:45;8.90;;;6.95;;
71763;SDS011;59602;52.142;5.408;2023-07-09T21:05:14;11.18;;;6.55;;
71763;SDS011;59602;52.142;5.408;2023-07-09T21:07:44;10.43;;;6.37;;
71763;SDS011;59602;52.142;5.408;2023-07-09T21:10:19;10.15;;;6.03;;
71763;SDS011;59602;52.142;5.408;2023-07-09T21:12:48;11.73;;;5.88;;
71763;SDS011;59602;52.142;5.408;2023-07-09T21:15:25;11.77;;;5.63;;
71763;SDS011;59602;52.142;5.408;2023-07-09T21:18:04;9.57;;;5.22;;
71763;SDS011;59602;52.142;5.408;2023-07-09T21:20:32;12.47;;;5.63;;
71763;SDS011;59602;52.142;5.408;2023-07-09T21:22:59;10.68;;;5.30;;
71763;SDS011;59602;52.142;5.408;2023-07-09T21:25:26;11.60;;;5.53;;
71763;SDS011;59602;52.142;5.408;2023-07-09T21:27:53;12.25;;;5.60;;
71763;SDS011;59602;52.142;5.408;2023-07-09T21:30:20;9.70;;;5.28;;
71763;SDS011;59602;52.142;5.408;2023-07-09T21:32:48;9.00;;;5.03;;
71763;SDS011;59602;52.142;5.408;2023-07-09T21:35:18;9.75;;;5.28;;
71763;SDS011;59602;52.142;5.408;2023-07-09T21:37:45;11.25;;;4.82;;
71763;SDS011;59602;52.142;5.408;2023-07-09T21:40:21;13.55;;;4.90;;
71763;SDS011;59602;52.142;5.408;2023-07-09T21:42:50;14.27;;;5.32;;
71763;SDS011;59602;52.142;5.408;2023-07-09T21:45:17;11.43;;;5.40;;
71763;SDS011;59602;52.142;5.408;2023-07-09T21:47:45;9.32;;;4.82;;
71763;SDS011;59602;52.142;5.408;2023-07-09T21:50:14;12.00;;;4.97;;
71763;SDS011;59602;52.142;5.408;2023-07-09T21:52:44;8.93;;;4.82;;
71763;SDS011;59602;52.142;5.408;2023-07-09T21:55:14;11.60;;;4.50;;
71763;SDS011;59602;52.142;5.408;2023-07-09T21:57:43;8.50;;;4.60;;
71763;SDS011;59602;52.142;5.408;2023-07-09T22:00:15;10.00;;;4.40;;
71763;SDS011;59602;52.142;5.408;2023-07-09T22:02:44;10.52;;;4.80;;
71763;SDS011;59602;52.142;5.408;2023-07-09T22:05:18;9.73;;;5.05;;
71763;SDS011;59602;52.142;5.408;2023-07-09T22:07:47;9.35;;;4.72;;
71763;SDS011;59602;52.142;5.408;2023-07-09T22:10:16;10.40;;;4.67;;
71763;SDS011;59602;52.142;5.408;2023-07-09T22:12:49;8.15;;;4.32;;
71763;SDS011;59602;52.142;5.408;2023-07-09T22:15:19;9.27;;;4.35;;
71763;SDS011;59602;52.142;5.408;2023-07-09T22:17:48;9.60;;;4.93;;
71763;SDS011;59602;52.142;5.408;2023-07-09T22:20:17;10.98;;;5.18;;
71763;SDS011;59602;52.142;5.408;2023-07-09T22:22:47;8.43;;;4.67;;
71763;SDS011;59602;52.142;5.408;2023-07-09T22:25:18;8.73;;;4.68;;
71763;SDS011;59602;52.142;5.408;2023-07-09T22:27:46;13.45;;;5.03;;
71763;SDS011;59602;52.142;5.408;2023-07-09T22:30:14;12.27;;;5.22;;
71763;SDS011;59602;52.142;5.408;2023-07-09T22:32:43;9.63;;;4.70;;
71763;SDS011;59602;52.142;5.408;2023-07-09T22:35:13;13.53;;;5.17;;
71763;SDS011;59602;52.142;5.408;2023-07-09T22:37:42;9.02;;;5.00;;
71763;SDS011;59602;52.142;5.408;2023-07-09T22:40:12;10.18;;;4.38;;
71763;SDS011;59602;52.142;5.408;2023-07-09T22:42:52;9.05;;;4.53;;
71763;SDS011;59602;52.142;5.408;2023-07-09T22:45:22;8.30;;;4.13;;
71763;SDS011;59602;52.142;5.408;2023-07-09T22:47:52;6.43;;;3.57;;
71763;SDS011;59602;52.142;5.408;2023-07-09T22:50:27;7.30;;;3.70;;
71763;SDS011;59602;52.142;5.408;2023-07-09T22:52:55;11.48;;;3.97;;
71763;SDS011;59602;52.142;5.408;2023-07-09T22:57:54;8.50;;;3.95;;
71763;SDS011;59602;52.142;5.408;2023-07-09T23:00:22;7.03;;;3.43;;
71763;SDS011;59602;52.142;5.408;2023-07-09T23:02:50;9.52;;;3.88;;
71763;SDS011;59602;52.142;5.408;2023-07-09T23:05:18;8.40;;;3.53;;
71763;SDS011;59602;52.142;5.408;2023-07-09T23:07:44;9.90;;;3.55;;
71763;SDS011;59602;52.142;5.408;2023-07-09T23:10:11;6.85;;;3.30;;
71763;SDS011;59602;52.142;5.408;2023-07-09T23:12:38;6.53;;;3.03;;
71763;SDS011;59602;52.142;5.408;2023-07-09T23:15:23;10.80;;;3.70;;